sensor_id;sensor_type;location;lat;lon;timestamp;temperature;humidity
38265;DHT22;24062;47.480;8.768;2023-11-22T00:00:54;20.40;60.60
38265;DHT22;24062;47.480;8.768;2023-11-22T00:03:21;20.40;60.70
38265;DHT22;24062;47.480;8.768;2023-11-22T00:05:49;20.40;60.80
38265;DHT22;24062;47.480;8.768;2023-11-22T00:08:16;20.30;60.70
38265;DHT22;24062;47.480;8.768;2023-11-22T00:10:44;20.30;60.80
38265;DHT22;24062;47.480;8.768;2023-11-22T00:13:11;20.30;60.90
38265;DHT22;24062;47.480;8.768;2023-11-22T00:15:39;20.20;60.90
38265;DHT22;24062;47.480;8.768;2023-11-22T00:18:06;20.20;61.00
38265;DHT22;24062;47.480;8.768;2023-11-22T00:20:33;20.20;61.00
38265;DHT22;24062;47.480;8.768;2023-11-22T00:23:00;20.20;61.10
38265;DHT22;24062;47.480;8.768;2023-11-22T00:25:28;20.20;61.20
38265;DHT22;24062;47.480;8.768;2023-11-22T00:27:55;20.20;61.20
38265;DHT22;24062;47.480;8.768;2023-11-22T00:30:22;20.10;61.10
38265;DHT22;24062;47.480;8.768;2023-11-22T00:32:51;20.10;61.10
38265;DHT22;24062;47.480;8.768;2023-11-22T00:35:18;20.10;61.20
38265;DHT22;24062;47.480;8.768;2023-11-22T00:37:45;20.10;61.30
38265;DHT22;24062;47.480;8.768;2023-11-22T00:40:12;20.00;61.30
38265;DHT22;24062;47.480;8.768;2023-11-22T00:42:39;20.00;61.40
38265;DHT22;24062;47.480;8.768;2023-11-22T00:45:09;20.00;61.40
38265;DHT22;24062;47.480;8.768;2023-11-22T00:47:36;20.00;61.50
38265;DHT22;24062;47.480;8.768;2023-11-22T00:50:07;20.00;61.50
38265;DHT22;24062;47.480;8.768;2023-11-22T00:52:34;20.00;61.50
38265;DHT22;24062;47.480;8.768;2023-11-22T00:55:00;20.00;61.50
38265;DHT22;24062;47.480;8.768;2023-11-22T00:57:27;20.00;61.50
38265;DHT22;24062;47.480;8.768;2023-11-22T00:59:55;20.00;61.40
38265;DHT22;24062;47.480;8.768;2023-11-22T01:02:22;20.00;61.50
38265;DHT22;24062;47.480;8.768;2023-11-22T01:04:49;19.90;61.50
38265;DHT22;24062;47.480;8.768;2023-11-22T01:07:18;19.90;61.50
38265;DHT22;24062;47.480;8.768;2023-11-22T01:09:44;19.90;61.50
38265;DHT22;24062;47.480;8.768;2023-11-22T01:12:11;19.90;61.50
38265;DHT22;24062;47.480;8.768;2023-11-22T01:14:38;19.90;61.50
38265;DHT22;24062;47.480;8.768;2023-11-22T01:17:06;19.90;61.50
38265;DHT22;24062;47.480;8.768;2023-11-22T01:19:34;19.90;61.50
38265;DHT22;24062;47.480;8.768;2023-11-22T01:22:01;19.90;61.50
38265;DHT22;24062;47.480;8.768;2023-11-22T01:24:29;19.80;61.50
38265;DHT22;24062;47.480;8.768;2023-11-22T01:26:56;19.90;61.60
38265;DHT22;24062;47.480;8.768;2023-11-22T01:29:23;19.90;61.60
38265;DHT22;24062;47.480;8.768;2023-11-22T01:31:50;19.80;61.60
38265;DHT22;24062;47.480;8.768;2023-11-22T01:34:17;19.80;61.60
38265;DHT22;24062;47.480;8.768;2023-11-22T01:36:44;19.80;61.70
38265;DHT22;24062;47.480;8.768;2023-11-22T01:39:11;19.80;61.70
38265;DHT22;24062;47.480;8.768;2023-11-22T01:41:40;19.80;61.70
38265;DHT22;24062;47.480;8.768;2023-11-22T01:44:08;19.80;61.70
38265;DHT22;24062;47.480;8.768;2023-11-22T01:46:35;19.80;61.70
38265;DHT22;24062;47.480;8.768;2023-11-22T01:49:01;19.80;61.70
38265;DHT22;24062;47.480;8.768;2023-11-22T01:51:28;19.80;61.80
38265;DHT22;24062;47.480;8.768;2023-11-22T01:53:56;19.70;61.70
38265;DHT22;24062;47.480;8.768;2023-11-22T01:56:26;19.80;61.70
38265;DHT22;24062;47.480;8.768;2023-11-22T01:58:55;19.70;61.70
38265;DHT22;24062;47.480;8.768;2023-11-22T02:01:23;19.70;61.70
38265;DHT22;24062;47.480;8.768;2023-11-22T02:03:50;19.70;61.80
38265;DHT22;24062;47.480;8.768;2023-11-22T02:06:19;19.70;61.90
38265;DHT22;24062;47.480;8.768;2023-11-22T02:08:48;19.70;61.90
38265;DHT22;24062;47.480;8.768;2023-11-22T02:11:17;19.60;61.80
38265;DHT22;24062;47.480;8.768;2023-11-22T02:13:47;19.70;61.90
38265;DHT22;24062;47.480;8.768;2023-11-22T02:16:16;19.60;61.90
38265;DHT22;24062;47.480;8.768;2023-11-22T02:18:43;19.60;61.90
38265;DHT22;24062;47.480;8.768;2023-11-22T02:21:11;19.60;61.90
38265;DHT22;24062;47.480;8.768;2023-11-22T02:23:39;19.60;61.90
38265;DHT22;24062;47.480;8.768;2023-11-22T02:26:06;19.60;61.90
38265;DHT22;24062;47.480;8.768;2023-11-22T02:28:33;19.60;61.90
38265;DHT22;24062;47.480;8.768;2023-11-22T02:31:00;19.60;61.90
38265;DHT22;24062;47.480;8.768;2023-11-22T02:33:27;19.60;61.90
38265;DHT22;24062;47.480;8.768;2023-11-22T02:35:54;19.60;62.00
38265;DHT22;24062;47.480;8.768;2023-11-22T02:38:21;19.60;62.00
38265;DHT22;24062;47.480;8.768;2023-11-22T02:40:49;19.60;62.00
38265;DHT22;24062;47.480;8.768;2023-11-22T02:43:16;19.50;61.80
38265;DHT22;24062;47.480;8.768;2023-11-22T02:45:43;19.50;62.00
38265;DHT22;24062;47.480;8.768;2023-11-22T02:48:10;19.50;62.00
38265;DHT22;24062;47.480;8.768;2023-11-22T02:50:39;19.50;62.00
38265;DHT22;24062;47.480;8.768;2023-11-22T02:53:09;19.50;62.00
38265;DHT22;24062;47.480;8.768;2023-11-22T02:55:36;19.50;62.00
38265;DHT22;24062;47.480;8.768;2023-11-22T02:58:04;19.50;62.00
38265;DHT22;24062;47.480;8.768;2023-11-22T03:00:31;19.50;62.00
38265;DHT22;24062;47.480;8.768;2023-11-22T03:03:00;19.50;62.00
38265;DHT22;24062;47.480;8.768;2023-11-22T03:05:29;19.60;62.00
38265;DHT22;24062;47.480;8.768;2023-11-22T03:07:56;19.50;61.70
38265;DHT22;24062;47.480;8.768;2023-11-22T03:10:24;19.60;61.80
38265;DHT22;24062;47.480;8.768;2023-11-22T03:12:51;19.60;61.70
38265;DHT22;24062;47.480;8.768;2023-11-22T03:15:21;19.60;61.70
38265;DHT22;24062;47.480;8.768;2023-11-22T03:17:48;19.60;61.70
38265;DHT22;24062;47.480;8.768;2023-11-22T03:20:15;19.60;61.60
38265;DHT22;24062;47.480;8.768;2023-11-22T03:22:42;19.70;61.80
38265;DHT22;24062;47.480;8.768;2023-11-22T03:25:10;19.70;61.80
38265;DHT22;24062;47.480;8.768;2023-11-22T03:27:38;19.80;61.80
38265;DHT22;24062;47.480;8.768;2023-11-22T03:30:06;19.80;61.70
38265;DHT22;24062;47.480;8.768;2023-11-22T03:32:38;19.90;61.60
38265;DHT22;24062;47.480;8.768;2023-11-22T03:35:06;20.00;61.50
38265;DHT22;24062;47.480;8.768;2023-11-22T03:37:33;20.10;61.50
38265;DHT22;24062;47.480;8.768;2023-11-22T03:40:00;20.10;61.30
38265;DHT22;24062;47.480;8.768;2023-11-22T03:42:27;20.20;61.20
38265;DHT22;24062;47.480;8.768;2023-11-22T03:44:54;20.20;61.20
38265;DHT22;24062;47.480;8.768;2023-11-22T03:47:24;20.20;61.00
38265;DHT22;24062;47.480;8.768;2023-11-22T03:49:52;20.30;61.10
38265;DHT22;24062;47.480;8.768;2023-11-22T03:52:19;20.30;61.00
38265;DHT22;24062;47.480;8.768;2023-11-22T03:54:46;20.30;60.80
38265;DHT22;24062;47.480;8.768;2023-11-22T03:57:13;20.30;60.80
38265;DHT22;24062;47.480;8.768;2023-11-22T03:59:40;20.30;60.80
38265;DHT22;24062;47.480;8.768;2023-11-22T04:02:08;20.40;61.70
38265;DHT22;24062;47.480;8.768;2023-11-22T04:04:36;20.40;60.80
38265;DHT22;24062;47.480;8.768;2023-11-22T04:07:06;20.40;60.80
38265;DHT22;24062;47.480;8.768;2023-11-22T04:09:33;20.40;60.80
38265;DHT22;24062;47.480;8.768;2023-11-22T04:12:00;20.50;60.70
38265;DHT22;24062;47.480;8.768;2023-11-22T04:14:29;20.50;60.70
38265;DHT22;24062;47.480;8.768;2023-11-22T04:16:56;20.50;60.60
38265;DHT22;24062;47.480;8.768;2023-11-22T04:19:23;20.60;60.70
38265;DHT22;24062;47.480;8.768;2023-11-22T04:21:50;20.60;60.60
38265;DHT22;24062;47.480;8.768;2023-11-22T04:24:18;20.60;60.50
38265;DHT22;24062;47.480;8.768;2023-11-22T04:26:45;20.60;60.50
38265;DHT22;24062;47.480;8.768;2023-11-22T04:29:12;20.60;60.50
38265;DHT22;24062;47.480;8.768;2023-11-22T04:31:39;20.60;60.40
38265;DHT22;24062;47.480;8.768;2023-11-22T04:34:06;20.60;60.30
38265;DHT22;24062;47.480;8.768;2023-11-22T04:36:33;20.70;60.40
38265;DHT22;24062;47.480;8.768;2023-11-22T04:39:00;20.60;60.30
38265;DHT22;24062;47.480;8.768;2023-11-22T04:41:28;20.70;60.50
38265;DHT22;24062;47.480;8.768;2023-11-22T04:43:55;20.70;60.40
38265;DHT22;24062;47.480;8.768;2023-11-22T04:46:22;20.70;60.30
38265;DHT22;24062;47.480;8.768;2023-11-22T04:48:48;20.70;60.30
38265;DHT22;24062;47.480;8.768;2023-11-22T04:51:16;20.80;60.30
38265;DHT22;24062;47.480;8.768;2023-11-22T04:53:44;20.80;60.30
38265;DHT22;24062;47.480;8.768;2023-11-22T04:56:11;20.80;60.20
38265;DHT22;24062;47.480;8.768;2023-11-22T04:58:39;20.80;60.20
38265;DHT22;24062;47.480;8.768;2023-11-22T05:01:07;20.80;60.10
38265;DHT22;24062;47.480;8.768;2023-11-22T05:03:35;20.90;60.20
38265;DHT22;24062;47.480;8.768;2023-11-22T05:06:03;20.80;60.10
38265;DHT22;24062;47.480;8.768;2023-11-22T05:08:30;20.80;60.00
38265;DHT22;24062;47.480;8.768;2023-11-22T05:10:57;20.80;60.00
38265;DHT22;24062;47.480;8.768;2023-11-22T05:13:24;20.80;60.00
38265;DHT22;24062;47.480;8.768;2023-11-22T05:15:52;20.80;60.10
38265;DHT22;24062;47.480;8.768;2023-11-22T05:18:20;20.90;60.10
38265;DHT22;24062;47.480;8.768;2023-11-22T05:20:47;20.90;60.10
38265;DHT22;24062;47.480;8.768;2023-11-22T05:23:15;20.90;60.00
38265;DHT22;24062;47.480;8.768;2023-11-22T05:25:41;20.90;60.00
38265;DHT22;24062;47.480;8.768;2023-11-22T05:28:09;21.00;60.00
38265;DHT22;24062;47.480;8.768;2023-11-22T05:30:36;20.90;59.90
38265;DHT22;24062;47.480;8.768;2023-11-22T05:33:04;21.00;60.00
38265;DHT22;24062;47.480;8.768;2023-11-22T05:35:32;21.00;60.00
38265;DHT22;24062;47.480;8.768;2023-11-22T05:37:58;21.00;59.90
38265;DHT22;24062;47.480;8.768;2023-11-22T05:40:25;21.00;59.90
38265;DHT22;24062;47.480;8.768;2023-11-22T05:42:52;21.00;59.90
38265;DHT22;24062;47.480;8.768;2023-11-22T05:45:19;21.00;59.80
38265;DHT22;24062;47.480;8.768;2023-11-22T05:47:46;21.00;59.90
38265;DHT22;24062;47.480;8.768;2023-11-22T05:50:15;21.00;59.80
38265;DHT22;24062;47.480;8.768;2023-11-22T05:52:42;21.10;60.00
38265;DHT22;24062;47.480;8.768;2023-11-22T05:55:10;21.10;59.90
38265;DHT22;24062;47.480;8.768;2023-11-22T05:57:39;21.10;59.90
38265;DHT22;24062;47.480;8.768;2023-11-22T06:00:07;21.10;59.80
38265;DHT22;24062;47.480;8.768;2023-11-22T06:02:34;21.10;59.80
38265;DHT22;24062;47.480;8.768;2023-11-22T06:05:03;21.10;60.50
38265;DHT22;24062;47.480;8.768;2023-11-22T06:07:32;21.10;59.80
38265;DHT22;24062;47.480;8.768;2023-11-22T06:09:59;21.10;59.70
38265;DHT22;24062;47.480;8.768;2023-11-22T06:12:28;21.10;59.70
38265;DHT22;24062;47.480;8.768;2023-11-22T06:14:55;21.10;59.70
38265;DHT22;24062;47.480;8.768;2023-11-22T06:17:22;21.10;59.80
38265;DHT22;24062;47.480;8.768;2023-11-22T06:19:49;21.20;59.80
38265;DHT22;24062;47.480;8.768;2023-11-22T06:22:16;21.10;59.80
38265;DHT22;24062;47.480;8.768;2023-11-22T06:24:46;21.20;59.90
38265;DHT22;24062;47.480;8.768;2023-11-22T06:27:13;21.20;59.90
38265;DHT22;24062;47.480;8.768;2023-11-22T06:29:40;21.20;59.90
38265;DHT22;24062;47.480;8.768;2023-11-22T06:32:09;21.20;59.90
38265;DHT22;24062;47.480;8.768;2023-11-22T06:34:36;21.20;59.90
38265;DHT22;24062;47.480;8.768;2023-11-22T06:37:03;21.20;60.00
38265;DHT22;24062;47.480;8.768;2023-11-22T06:39:32;21.30;60.00
38265;DHT22;24062;47.480;8.768;2023-11-22T06:42:00;21.30;60.00
38265;DHT22;24062;47.480;8.768;2023-11-22T06:44:27;21.30;60.00
38265;DHT22;24062;47.480;8.768;2023-11-22T06:46:54;21.40;60.10
38265;DHT22;24062;47.480;8.768;2023-11-22T06:49:22;21.30;60.00
38265;DHT22;24062;47.480;8.768;2023-11-22T06:51:49;21.40;60.10
38265;DHT22;24062;47.480;8.768;2023-11-22T06:54:18;21.40;60.20
38265;DHT22;24062;47.480;8.768;2023-11-22T06:56:45;21.40;60.30
38265;DHT22;24062;47.480;8.768;2023-11-22T06:59:14;21.40;60.30
38265;DHT22;24062;47.480;8.768;2023-11-22T07:01:41;21.40;60.30
38265;DHT22;24062;47.480;8.768;2023-11-22T07:04:08;21.40;60.30
38265;DHT22;24062;47.480;8.768;2023-11-22T07:06:35;21.50;60.30
38265;DHT22;24062;47.480;8.768;2023-11-22T07:09:03;21.50;60.30
38265;DHT22;24062;47.480;8.768;2023-11-22T07:11:30;21.50;60.20
38265;DHT22;24062;47.480;8.768;2023-11-22T07:13:57;21.50;60.30
38265;DHT22;24062;47.480;8.768;2023-11-22T07:16:26;21.50;60.30
38265;DHT22;24062;47.480;8.768;2023-11-22T07:18:53;21.50;60.20
38265;DHT22;24062;47.480;8.768;2023-11-22T07:21:20;21.50;60.20
38265;DHT22;24062;47.480;8.768;2023-11-22T07:23:47;21.60;60.30
38265;DHT22;24062;47.480;8.768;2023-11-22T07:26:14;21.60;60.30
38265;DHT22;24062;47.480;8.768;2023-11-22T07:28:41;21.60;60.20
38265;DHT22;24062;47.480;8.768;2023-11-22T07:31:08;21.60;60.30
38265;DHT22;24062;47.480;8.768;2023-11-22T07:33:38;21.60;60.30
38265;DHT22;24062;47.480;8.768;2023-11-22T07:36:05;21.60;60.20
38265;DHT22;24062;47.480;8.768;2023-11-22T07:38:33;21.60;60.20
38265;DHT22;24062;47.480;8.768;2023-11-22T07:41:00;21.70;60.30
38265;DHT22;24062;47.480;8.768;2023-11-22T07:43:27;21.60;60.10
38265;DHT22;24062;47.480;8.768;2023-11-22T07:45:54;21.60;60.10
38265;DHT22;24062;47.480;8.768;2023-11-22T07:48:21;21.60;60.10
38265;DHT22;24062;47.480;8.768;2023-11-22T07:50:49;21.60;60.10
38265;DHT22;24062;47.480;8.768;2023-11-22T07:53:17;21.60;60.00
38265;DHT22;24062;47.480;8.768;2023-11-22T07:55:44;21.60;60.00
38265;DHT22;24062;47.480;8.768;2023-11-22T07:58:12;21.70;60.00
38265;DHT22;24062;47.480;8.768;2023-11-22T08:00:40;21.70;60.10
38265;DHT22;24062;47.480;8.768;2023-11-22T08:03:08;21.70;60.10
38265;DHT22;24062;47.480;8.768;2023-11-22T08:05:35;21.70;60.10
38265;DHT22;24062;47.480;8.768;2023-11-22T08:08:07;21.70;60.10
38265;DHT22;24062;47.480;8.768;2023-11-22T08:10:34;21.80;60.20
38265;DHT22;24062;47.480;8.768;2023-11-22T08:13:01;21.80;60.30
38265;DHT22;24062;47.480;8.768;2023-11-22T08:15:29;21.80;60.20
38265;DHT22;24062;47.480;8.768;2023-11-22T08:17:57;21.80;60.30
38265;DHT22;24062;47.480;8.768;2023-11-22T08:20:24;21.80;60.30
38265;DHT22;24062;47.480;8.768;2023-11-22T08:22:51;21.80;60.30
38265;DHT22;24062;47.480;8.768;2023-11-22T08:25:19;21.80;60.20
38265;DHT22;24062;47.480;8.768;2023-11-22T08:27:46;21.80;60.30
38265;DHT22;24062;47.480;8.768;2023-11-22T08:30:13;21.80;60.30
38265;DHT22;24062;47.480;8.768;2023-11-22T08:32:41;21.80;60.30
38265;DHT22;24062;47.480;8.768;2023-11-22T08:35:10;21.90;60.40
38265;DHT22;24062;47.480;8.768;2023-11-22T08:37:40;21.90;60.40
38265;DHT22;24062;47.480;8.768;2023-11-22T08:40:09;21.90;60.30
38265;DHT22;24062;47.480;8.768;2023-11-22T08:42:38;21.90;60.30
38265;DHT22;24062;47.480;8.768;2023-11-22T08:45:07;21.90;60.30
38265;DHT22;24062;47.480;8.768;2023-11-22T08:47:35;22.00;60.50
38265;DHT22;24062;47.480;8.768;2023-11-22T08:50:02;21.90;60.40
38265;DHT22;24062;47.480;8.768;2023-11-22T08:52:31;21.90;60.30
38265;DHT22;24062;47.480;8.768;2023-11-22T08:54:58;22.00;60.40
38265;DHT22;24062;47.480;8.768;2023-11-22T08:57:26;22.00;60.30
38265;DHT22;24062;47.480;8.768;2023-11-22T08:59:54;22.00;60.30
38265;DHT22;24062;47.480;8.768;2023-11-22T09:02:21;22.00;60.40
38265;DHT22;24062;47.480;8.768;2023-11-22T09:04:49;22.00;60.40
38265;DHT22;24062;47.480;8.768;2023-11-22T09:07:16;22.00;60.30
38265;DHT22;24062;47.480;8.768;2023-11-22T09:09:43;22.00;60.30
38265;DHT22;24062;47.480;8.768;2023-11-22T09:12:10;22.00;60.30
38265;DHT22;24062;47.480;8.768;2023-11-22T09:14:39;22.00;60.30
38265;DHT22;24062;47.480;8.768;2023-11-22T09:17:08;22.10;60.40
38265;DHT22;24062;47.480;8.768;2023-11-22T09:19:36;22.10;60.30
38265;DHT22;24062;47.480;8.768;2023-11-22T09:22:04;22.10;60.20
38265;DHT22;24062;47.480;8.768;2023-11-22T09:24:32;22.20;60.20
38265;DHT22;24062;47.480;8.768;2023-11-22T09:27:02;22.20;60.10
38265;DHT22;24062;47.480;8.768;2023-11-22T09:29:31;22.20;60.10
38265;DHT22;24062;47.480;8.768;2023-11-22T09:31:59;22.30;60.10
38265;DHT22;24062;47.480;8.768;2023-11-22T09:34:28;22.20;59.90
38265;DHT22;24062;47.480;8.768;2023-11-22T09:36:56;22.30;60.00
38265;DHT22;24062;47.480;8.768;2023-11-22T09:39:24;22.20;59.80
38265;DHT22;24062;47.480;8.768;2023-11-22T09:41:51;22.30;60.00
38265;DHT22;24062;47.480;8.768;2023-11-22T09:44:19;22.30;60.00
38265;DHT22;24062;47.480;8.768;2023-11-22T09:46:48;22.30;60.00
38265;DHT22;24062;47.480;8.768;2023-11-22T09:49:24;22.30;59.90
38265;DHT22;24062;47.480;8.768;2023-11-22T09:51:54;22.30;59.90
38265;DHT22;24062;47.480;8.768;2023-11-22T09:54:24;22.30;60.00
38265;DHT22;24062;47.480;8.768;2023-11-22T09:56:58;22.20;60.00
38265;DHT22;24062;47.480;8.768;2023-11-22T09:59:27;22.20;59.90
38265;DHT22;24062;47.480;8.768;2023-11-22T10:01:55;22.20;60.00
38265;DHT22;24062;47.480;8.768;2023-11-22T10:04:25;22.20;60.10
38265;DHT22;24062;47.480;8.768;2023-11-22T10:06:56;22.20;60.00
38265;DHT22;24062;47.480;8.768;2023-11-22T10:09:24;22.20;60.10
38265;DHT22;24062;47.480;8.768;2023-11-22T10:11:53;22.20;60.00
38265;DHT22;24062;47.480;8.768;2023-11-22T10:14:23;22.20;60.10
38265;DHT22;24062;47.480;8.768;2023-11-22T10:16:58;22.20;60.10
38265;DHT22;24062;47.480;8.768;2023-11-22T10:19:26;22.20;60.20
38265;DHT22;24062;47.480;8.768;2023-11-22T10:22:05;22.20;60.10
38265;DHT22;24062;47.480;8.768;2023-11-22T10:24:32;22.20;60.10
38265;DHT22;24062;47.480;8.768;2023-11-22T10:27:00;22.20;60.20
38265;DHT22;24062;47.480;8.768;2023-11-22T10:29:27;22.20;60.10
38265;DHT22;24062;47.480;8.768;2023-11-22T10:31:54;22.20;60.10
38265;DHT22;24062;47.480;8.768;2023-11-22T10:34:23;22.20;60.20
38265;DHT22;24062;47.480;8.768;2023-11-22T10:36:50;22.20;60.20
38265;DHT22;24062;47.480;8.768;2023-11-22T10:39:22;22.20;60.10
38265;DHT22;24062;47.480;8.768;2023-11-22T10:41:51;22.20;60.10
38265;DHT22;24062;47.480;8.768;2023-11-22T10:44:20;22.20;60.20
38265;DHT22;24062;47.480;8.768;2023-11-22T10:46:48;22.20;60.20
38265;DHT22;24062;47.480;8.768;2023-11-22T10:49:16;22.20;60.10
38265;DHT22;24062;47.480;8.768;2023-11-22T10:51:45;22.20;60.20
38265;DHT22;24062;47.480;8.768;2023-11-22T10:54:14;22.30;60.10
38265;DHT22;24062;47.480;8.768;2023-11-22T10:56:46;22.30;60.20
38265;DHT22;24062;47.480;8.768;2023-11-22T10:59:19;22.20;60.00
38265;DHT22;24062;47.480;8.768;2023-11-22T11:01:49;22.30;60.20
38265;DHT22;24062;47.480;8.768;2023-11-22T11:04:24;22.30;60.20
38265;DHT22;24062;47.480;8.768;2023-11-22T11:06:55;22.30;60.20
38265;DHT22;24062;47.480;8.768;2023-11-22T11:09:25;22.30;60.10
38265;DHT22;24062;47.480;8.768;2023-11-22T11:11:59;22.30;60.20
38265;DHT22;24062;47.480;8.768;2023-11-22T11:14:29;22.30;60.20
38265;DHT22;24062;47.480;8.768;2023-11-22T11:16:56;22.20;60.10
38265;DHT22;24062;47.480;8.768;2023-11-22T11:19:24;22.30;60.20
38265;DHT22;24062;47.480;8.768;2023-11-22T11:21:54;22.20;60.00
38265;DHT22;24062;47.480;8.768;2023-11-22T11:24:22;22.20;59.90
38265;DHT22;24062;47.480;8.768;2023-11-22T11:26:50;22.30;60.00
38265;DHT22;24062;47.480;8.768;2023-11-22T11:29:33;22.20;59.90
38265;DHT22;24062;47.480;8.768;2023-11-22T11:32:02;22.20;59.80
38265;DHT22;24062;47.480;8.768;2023-11-22T11:34:29;22.20;59.80
38265;DHT22;24062;47.480;8.768;2023-11-22T11:36:59;22.20;59.80
38265;DHT22;24062;47.480;8.768;2023-11-22T11:39:27;22.20;59.70
38265;DHT22;24062;47.480;8.768;2023-11-22T11:42:08;22.20;59.80
38265;DHT22;24062;47.480;8.768;2023-11-22T11:44:37;22.20;59.70
38265;DHT22;24062;47.480;8.768;2023-11-22T11:47:11;22.20;59.70
38265;DHT22;24062;47.480;8.768;2023-11-22T11:49:38;22.20;59.70
38265;DHT22;24062;47.480;8.768;2023-11-22T11:52:05;22.20;59.70
38265;DHT22;24062;47.480;8.768;2023-11-22T11:54:33;22.10;59.60
38265;DHT22;24062;47.480;8.768;2023-11-22T11:57:01;22.20;59.70
38265;DHT22;24062;47.480;8.768;2023-11-22T11:59:28;22.10;59.60
38265;DHT22;24062;47.480;8.768;2023-11-22T12:01:59;22.10;59.60
38265;DHT22;24062;47.480;8.768;2023-11-22T12:04:26;22.10;59.60
38265;DHT22;24062;47.480;8.768;2023-11-22T12:06:53;22.10;59.60
38265;DHT22;24062;47.480;8.768;2023-11-22T12:09:24;22.10;59.60
38265;DHT22;24062;47.480;8.768;2023-11-22T12:11:52;22.10;59.60
38265;DHT22;24062;47.480;8.768;2023-11-22T12:14:20;22.10;59.80
38265;DHT22;24062;47.480;8.768;2023-11-22T12:16:47;22.10;59.80
38265;DHT22;24062;47.480;8.768;2023-11-22T12:19:22;22.20;59.90
38265;DHT22;24062;47.480;8.768;2023-11-22T12:21:50;22.20;59.90
38265;DHT22;24062;47.480;8.768;2023-11-22T12:24:17;22.20;59.90
38265;DHT22;24062;47.480;8.768;2023-11-22T12:26:45;22.20;59.90
38265;DHT22;24062;47.480;8.768;2023-11-22T12:29:14;22.20;60.00
38265;DHT22;24062;47.480;8.768;2023-11-22T12:31:45;22.20;60.10
38265;DHT22;24062;47.480;8.768;2023-11-22T12:34:14;22.20;60.30
38265;DHT22;24062;47.480;8.768;2023-11-22T12:36:43;22.20;60.20
38265;DHT22;24062;47.480;8.768;2023-11-22T12:39:13;22.20;60.30
38265;DHT22;24062;47.480;8.768;2023-11-22T12:41:43;22.20;60.20
38265;DHT22;24062;47.480;8.768;2023-11-22T12:44:11;22.20;60.20
38265;DHT22;24062;47.480;8.768;2023-11-22T12:46:48;22.20;60.30
38265;DHT22;24062;47.480;8.768;2023-11-22T12:49:21;22.20;60.10
38265;DHT22;24062;47.480;8.768;2023-11-22T12:51:50;22.20;60.10
38265;DHT22;24062;47.480;8.768;2023-11-22T12:54:17;22.20;60.10
38265;DHT22;24062;47.480;8.768;2023-11-22T12:56:48;22.20;60.10
38265;DHT22;24062;47.480;8.768;2023-11-22T12:59:17;22.20;60.20
38265;DHT22;24062;47.480;8.768;2023-11-22T13:01:44;22.20;60.20
38265;DHT22;24062;47.480;8.768;2023-11-22T13:04:11;22.20;60.20
38265;DHT22;24062;47.480;8.768;2023-11-22T13:06:39;22.20;60.30
38265;DHT22;24062;47.480;8.768;2023-11-22T13:09:08;22.30;60.40
38265;DHT22;24062;47.480;8.768;2023-11-22T13:11:40;22.30;60.40
38265;DHT22;24062;47.480;8.768;2023-11-22T13:14:08;22.30;60.40
38265;DHT22;24062;47.480;8.768;2023-11-22T13:16:35;22.30;60.50
38265;DHT22;24062;47.480;8.768;2023-11-22T13:19:04;22.30;60.20
38265;DHT22;24062;47.480;8.768;2023-11-22T13:21:31;22.30;60.30
38265;DHT22;24062;47.480;8.768;2023-11-22T13:23:58;22.30;60.30
38265;DHT22;24062;47.480;8.768;2023-11-22T13:26:27;22.30;60.40
38265;DHT22;24062;47.480;8.768;2023-11-22T13:28:54;22.30;60.50
38265;DHT22;24062;47.480;8.768;2023-11-22T13:31:21;22.30;60.40
38265;DHT22;24062;47.480;8.768;2023-11-22T13:33:49;22.30;60.40
38265;DHT22;24062;47.480;8.768;2023-11-22T13:36:16;22.30;60.40
38265;DHT22;24062;47.480;8.768;2023-11-22T13:38:43;22.30;60.50
38265;DHT22;24062;47.480;8.768;2023-11-22T13:41:10;22.30;60.50
38265;DHT22;24062;47.480;8.768;2023-11-22T13:43:39;22.30;60.40
38265;DHT22;24062;47.480;8.768;2023-11-22T13:46:07;22.30;60.50
38265;DHT22;24062;47.480;8.768;2023-11-22T13:48:35;22.30;60.50
38265;DHT22;24062;47.480;8.768;2023-11-22T13:51:03;22.30;60.60
38265;DHT22;24062;47.480;8.768;2023-11-22T13:53:30;22.40;60.50
38265;DHT22;24062;47.480;8.768;2023-11-22T13:56:00;22.40;60.60
38265;DHT22;24062;47.480;8.768;2023-11-22T13:58:33;22.40;60.50
38265;DHT22;24062;47.480;8.768;2023-11-22T14:01:02;22.40;60.50
38265;DHT22;24062;47.480;8.768;2023-11-22T14:03:31;22.40;60.50
38265;DHT22;24062;47.480;8.768;2023-11-22T14:05:58;22.40;60.50
38265;DHT22;24062;47.480;8.768;2023-11-22T14:08:26;22.40;60.60
38265;DHT22;24062;47.480;8.768;2023-11-22T14:10:53;22.30;60.50
38265;DHT22;24062;47.480;8.768;2023-11-22T14:13:20;22.40;60.60
38265;DHT22;24062;47.480;8.768;2023-11-22T14:15:48;22.40;60.50
38265;DHT22;24062;47.480;8.768;2023-11-22T14:18:16;22.30;60.40
38265;DHT22;24062;47.480;8.768;2023-11-22T14:20:43;22.40;60.60
38265;DHT22;24062;47.480;8.768;2023-11-22T14:23:10;22.30;60.60
38265;DHT22;24062;47.480;8.768;2023-11-22T14:25:37;22.40;60.60
38265;DHT22;24062;47.480;8.768;2023-11-22T14:28:04;22.30;60.50
38265;DHT22;24062;47.480;8.768;2023-11-22T14:30:31;22.40;60.50
38265;DHT22;24062;47.480;8.768;2023-11-22T14:33:01;22.40;60.40
38265;DHT22;24062;47.480;8.768;2023-11-22T14:35:33;22.40;60.40
38265;DHT22;24062;47.480;8.768;2023-11-22T14:38:02;22.40;60.50
38265;DHT22;24062;47.480;8.768;2023-11-22T14:40:31;22.40;60.40
38265;DHT22;24062;47.480;8.768;2023-11-22T14:42:58;22.40;60.50
38265;DHT22;24062;47.480;8.768;2023-11-22T14:45:28;22.20;60.30
38265;DHT22;24062;47.480;8.768;2023-11-22T14:47:55;22.40;60.50
38265;DHT22;24062;47.480;8.768;2023-11-22T14:50:22;22.40;60.50
38265;DHT22;24062;47.480;8.768;2023-11-22T14:52:54;22.30;60.30
38265;DHT22;24062;47.480;8.768;2023-11-22T14:55:21;22.30;60.20
38265;DHT22;24062;47.480;8.768;2023-11-22T14:57:51;22.30;60.10
38265;DHT22;24062;47.480;8.768;2023-11-22T15:00:19;22.30;60.00
38265;DHT22;24062;47.480;8.768;2023-11-22T15:02:46;22.30;60.00
38265;DHT22;24062;47.480;8.768;2023-11-22T15:05:17;22.30;60.00
38265;DHT22;24062;47.480;8.768;2023-11-22T15:07:44;22.30;59.90
38265;DHT22;24062;47.480;8.768;2023-11-22T15:10:13;22.30;60.00
38265;DHT22;24062;47.480;8.768;2023-11-22T15:12:40;22.30;60.00
38265;DHT22;24062;47.480;8.768;2023-11-22T15:15:08;22.30;60.00
38265;DHT22;24062;47.480;8.768;2023-11-22T15:17:35;22.30;60.00
38265;DHT22;24062;47.480;8.768;2023-11-22T15:20:04;22.30;60.10
38265;DHT22;24062;47.480;8.768;2023-11-22T15:22:34;22.30;60.00
38265;DHT22;24062;47.480;8.768;2023-11-22T15:25:01;22.30;60.00
38265;DHT22;24062;47.480;8.768;2023-11-22T15:27:29;22.30;60.00
38265;DHT22;24062;47.480;8.768;2023-11-22T15:29:56;22.30;60.20
38265;DHT22;24062;47.480;8.768;2023-11-22T15:32:23;22.30;60.20
38265;DHT22;24062;47.480;8.768;2023-11-22T15:34:50;22.30;60.10